Time;durP1;ratioP1;P1;durP2;ratioP2;P2;SDS_P1;SDS_P2;PMS_P1;PMS_P2;Temp;Humidity;BMP_temperature;BMP_pressure;BME280_temperature;BME280_humidity;BME280_pressure;Samples;Min_cycle;Max_cycle;Signal;HPM_P1;HPM_P2
2022/07/24 00:00:42;;;;;;;8.30;4.13;;;;;;;;;;5007023;28;20133;-63
2022/07/24 00:03:08;;;;;;;6.03;2.92;;;;;;;;;;5000096;28;20073;-65
2022/07/24 00:05:35;;;;;;;6.05;2.60;;;;;;;;;;5007019;28;20077;-63
2022/07/24 00:08:02;;;;;;;4.70;2.45;;;;;;;;;;4999613;28;20069;-63
2022/07/24 00:10:31;;;;;;;6.70;2.38;;;;;;;;;;5006615;28;20145;-63
2022/07/24 00:12:57;;;;;;;5.90;2.72;;;;;;;;;;5000477;28;20046;-65
2022/07/24 00:15:24;;;;;;;5.05;2.40;;;;;;;;;;4990749;28;20053;-64
2022/07/24 00:17:50;;;;;;;5.93;2.80;;;;;;;;;;4985912;28;20065;-65
2022/07/24 00:20:17;;;;;;;4.00;2.25;;;;;;;;;;4995075;28;20060;-63
2022/07/24 00:22:44;;;;;;;4.25;2.38;;;;;;;;;;4994337;28;20046;-65
2022/07/24 00:25:10;;;;;;;4.95;2.35;;;;;;;;;;4969485;28;20058;-65
2022/07/24 00:27:38;;;;;;;6.28;2.70;;;;;;;;;;4974401;28;20058;-64
2022/07/24 00:30:06;;;;;;;6.95;3.42;;;;;;;;;;4979408;28;20073;-65
2022/07/24 00:32:32;;;;;;;7.38;2.58;;;;;;;;;;4990815;28;20089;-64
2022/07/24 00:34:59;;;;;;;5.28;2.30;;;;;;;;;;4976668;28;20046;-65
2022/07/24 00:37:27;;;;;;;5.25;2.47;;;;;;;;;;4974628;28;20105;-64
2022/07/24 00:39:53;;;;;;;4.28;2.50;;;;;;;;;;4974625;28;20050;-65
2022/07/24 00:42:20;;;;;;;5.95;2.60;;;;;;;;;;4990610;28;20053;-64
2022/07/24 00:44:48;;;;;;;5.90;2.45;;;;;;;;;;4988489;28;20045;-65
2022/07/24 00:47:14;;;;;;;4.80;2.42;;;;;;;;;;4993087;28;20046;-65
2022/07/24 00:49:41;;;;;;;7.90;4.32;;;;;;;;;;4989288;28;20136;-65
2022/07/24 00:52:08;;;;;;;5.90;2.70;;;;;;;;;;5009968;28;20042;-65
2022/07/24 00:54:35;;;;;;;5.85;2.92;;;;;;;;;;5004641;28;20960;-65
2022/07/24 00:57:01;;;;;;;5.32;2.60;;;;;;;;;;5009845;28;20054;-65
2022/07/24 00:59:28;;;;;;;7.13;2.70;;;;;;;;;;4989041;28;20069;-65
2022/07/24 01:01:56;;;;;;;5.13;2.42;;;;;;;;;;4992546;28;20046;-64
2022/07/24 01:04:23;;;;;;;5.80;2.72;;;;;;;;;;4993149;28;20061;-65
2022/07/24 01:06:51;;;;;;;6.57;2.90;;;;;;;;;;4987678;28;20060;-64
2022/07/24 01:09:18;;;;;;;5.40;2.50;;;;;;;;;;4994137;28;20054;-64
2022/07/24 01:11:45;;;;;;;4.60;2.60;;;;;;;;;;5005677;28;20058;-63
2022/07/24 01:14:12;;;;;;;4.70;2.30;;;;;;;;;;4993236;28;20104;-65
2022/07/24 01:16:38;;;;;;;7.28;2.95;;;;;;;;;;4982438;28;20078;-65
2022/07/24 01:19:06;;;;;;;5.15;2.40;;;;;;;;;;4972544;28;20058;-63
2022/07/24 01:21:34;;;;;;;8.82;2.80;;;;;;;;;;4969197;28;20047;-64
2022/07/24 01:24:01;;;;;;;5.30;2.67;;;;;;;;;;4973254;28;20112;-65
2022/07/24 01:26:28;;;;;;;6.28;2.80;;;;;;;;;;4968802;28;20054;-65
2022/07/24 01:28:54;;;;;;;4.43;2.15;;;;;;;;;;4972982;28;20059;-65
2022/07/24 01:31:21;;;;;;;6.97;2.63;;;;;;;;;;4957753;28;20054;-65
2022/07/24 01:33:48;;;;;;;7.82;3.83;;;;;;;;;;4988635;28;20054;-65
2022/07/24 01:36:14;;;;;;;5.53;2.80;;;;;;;;;;5004516;28;20073;-66
2022/07/24 01:38:42;;;;;;;5.05;2.70;;;;;;;;;;5011877;28;20057;-65
2022/07/24 01:41:09;;;;;;;8.60;4.43;;;;;;;;;;5005477;28;20045;-64
2022/07/24 01:43:35;;;;;;;10.07;4.07;;;;;;;;;;4992774;28;20056;-65
2022/07/24 01:46:02;;;;;;;6.53;3.00;;;;;;;;;;4992482;28;20080;-65
2022/07/24 01:48:29;;;;;;;6.30;2.90;;;;;;;;;;4969531;28;20053;-65
2022/07/24 01:50:55;;;;;;;5.55;2.35;;;;;;;;;;4973085;28;20054;-63
2022/07/24 01:53:22;;;;;;;7.13;3.25;;;;;;;;;;4982589;28;20060;-66
2022/07/24 01:55:51;;;;;;;6.18;2.70;;;;;;;;;;4991731;28;20081;-65
2022/07/24 01:58:19;;;;;;;4.78;2.40;;;;;;;;;;4979196;28;20046;-65
2022/07/24 02:00:46;;;;;;;5.73;2.60;;;;;;;;;;4984171;28;20137;-65
2022/07/24 02:03:12;;;;;;;5.50;2.67;;;;;;;;;;4968710;28;20050;-65
2022/07/24 02:05:39;;;;;;;7.60;3.70;;;;;;;;;;4972655;28;20050;-65
2022/07/24 02:08:07;;;;;;;7.47;2.88;;;;;;;;;;4979517;28;20045;-64
2022/07/24 02:10:33;;;;;;;6.73;3.03;;;;;;;;;;4992447;28;20058;-64
2022/07/24 02:13:02;;;;;;;4.68;2.58;;;;;;;;;;4992378;28;20079;-65
2022/07/24 02:15:28;;;;;;;7.43;3.67;;;;;;;;;;5012461;28;20072;-64
2022/07/24 02:17:57;;;;;;;5.68;2.85;;;;;;;;;;5001489;28;20160;-64
2022/07/24 02:20:24;;;;;;;5.97;2.60;;;;;;;;;;5004639;28;20049;-65
2022/07/24 02:22:51;;;;;;;5.55;2.90;;;;;;;;;;5002079;28;20064;-64
2022/07/24 02:25:17;;;;;;;6.25;2.90;;;;;;;;;;4989120;28;20054;-65
2022/07/24 02:27:45;;;;;;;9.15;4.63;;;;;;;;;;4988714;28;20050;-65
2022/07/24 02:30:14;;;;;;;6.23;2.87;;;;;;;;;;4969010;28;20137;-64
2022/07/24 02:32:41;;;;;;;5.72;2.40;;;;;;;;;;4969023;28;20329;-64
2022/07/24 02:35:08;;;;;;;5.90;2.78;;;;;;;;;;4995814;28;20078;-65
2022/07/24 02:37:36;;;;;;;5.28;2.38;;;;;;;;;;4988705;28;20065;-65
2022/07/24 02:40:02;;;;;;;5.72;2.92;;;;;;;;;;4968649;28;20109;-65
2022/07/24 02:42:29;;;;;;;5.95;2.22;;;;;;;;;;4968629;28;20078;-64
2022/07/24 02:44:56;;;;;;;8.70;3.10;;;;;;;;;;4979886;28;20110;-65
2022/07/24 02:47:24;;;;;;;5.90;3.00;;;;;;;;;;4968896;28;20071;-65
2022/07/24 02:49:50;;;;;;;10.68;3.63;;;;;;;;;;4962941;28;20046;-65
2022/07/24 02:54:51;;;;;;;7.10;2.95;;;;;;;;;;4969140;28;20166;-64
2022/07/24 02:57:17;;;;;;;5.97;3.45;;;;;;;;;;4953370;28;20083;-63
2022/07/24 02:59:53;;;;;;;6.72;3.60;;;;;;;;;;4943046;28;20061;-63
2022/07/24 03:02:21;;;;;;;7.50;3.45;;;;;;;;;;4951700;28;20053;-62
2022/07/24 03:04:49;;;;;;;12.60;6.17;;;;;;;;;;4952102;28;20447;-62
2022/07/24 03:07:15;;;;;;;6.72;3.08;;;;;;;;;;4951878;28;20310;-64
2022/07/24 03:09:42;;;;;;;8.25;4.28;;;;;;;;;;4952238;28;20043;-63
2022/07/24 03:12:09;;;;;;;11.73;6.78;;;;;;;;;;4948006;28;20061;-62
2022/07/24 03:14:37;;;;;;;7.57;2.80;;;;;;;;;;4951350;28;20057;-63
2022/07/24 03:17:04;;;;;;;5.75;3.17;;;;;;;;;;4952219;28;20047;-64
2022/07/24 03:19:31;;;;;;;11.50;6.43;;;;;;;;;;4952341;28;20050;-63
2022/07/24 03:21:59;;;;;;;9.10;4.13;;;;;;;;;;4952293;28;20051;-61
2022/07/24 03:24:25;;;;;;;5.47;2.80;;;;;;;;;;4954191;28;20050;-62
2022/07/24 03:26:53;;;;;;;5.43;2.90;;;;;;;;;;4954205;28;20133;-63
2022/07/24 03:29:20;;;;;;;10.43;5.27;;;;;;;;;;4951702;28;20047;-62
2022/07/24 03:31:46;;;;;;;5.68;2.75;;;;;;;;;;4951577;28;20068;-63
2022/07/24 03:34:13;;;;;;;7.80;4.13;;;;;;;;;;4951723;28;20067;-63
2022/07/24 03:36:40;;;;;;;5.57;2.67;;;;;;;;;;4951325;28;20066;-62
2022/07/24 03:39:08;;;;;;;15.77;6.50;;;;;;;;;;4968401;28;20059;-62
2022/07/24 03:41:35;;;;;;;7.07;3.10;;;;;;;;;;4951263;28;20079;-61
2022/07/24 03:44:01;;;;;;;7.03;3.45;;;;;;;;;;4951488;28;20057;-64
2022/07/24 03:46:29;;;;;;;7.20;3.30;;;;;;;;;;4951475;28;20058;-63
2022/07/24 03:48:55;;;;;;;6.65;3.47;;;;;;;;;;4952081;28;20058;-61
2022/07/24 03:51:22;;;;;;;6.47;3.10;;;;;;;;;;4951199;28;20047;-63
2022/07/24 03:53:49;;;;;;;8.48;3.85;;;;;;;;;;4967313;28;20059;-61
2022/07/24 03:56:17;;;;;;;7.50;4.00;;;;;;;;;;4951169;28;20059;-62
2022/07/24 03:58:44;;;;;;;;;;;;;;;;;;4951587;28;20105;-63
2022/07/24 04:01:11;;;;;;;9.10;2.85;;;;;;;;;;4967207;23;19925;-63
2022/07/24 04:03:38;;;;;;;5.40;2.90;;;;;;;;;;4981261;28;20054;-64
2022/07/24 04:06:05;;;;;;;7.10;3.35;;;;;;;;;;4972339;28;20061;-64
2022/07/24 04:08:34;;;;;;;5.77;2.87;;;;;;;;;;5006245;28;20041;-63
2022/07/24 04:11:01;;;;;;;6.63;3.25;;;;;;;;;;5002712;28;20315;-64
2022/07/24 04:13:30;;;;;;;6.53;2.97;;;;;;;;;;4986598;28;20448;-63
2022/07/24 04:15:57;;;;;;;6.55;3.17;;;;;;;;;;4994021;28;20057;-64
2022/07/24 04:18:25;;;;;;;7.63;3.05;;;;;;;;;;4977736;28;20140;-64
2022/07/24 04:20:52;;;;;;;6.25;3.42;;;;;;;;;;4984567;28;20057;-63
2022/07/24 04:23:18;;;;;;;15.18;7.80;;;;;;;;;;4985099;28;20070;-63
2022/07/24 04:25:45;;;;;;;6.80;3.50;;;;;;;;;;4993824;28;20054;-63
2022/07/24 04:28:13;;;;;;;6.68;3.35;;;;;;;;;;4990789;28;20060;-63
2022/07/24 04:30:41;;;;;;;6.97;3.55;;;;;;;;;;4987780;28;20057;-63
2022/07/24 04:33:08;;;;;;;10.15;4.72;;;;;;;;;;4993044;28;20060;-64
2022/07/24 04:35:35;;;;;;;9.27;4.10;;;;;;;;;;4983796;28;20075;-64
2022/07/24 04:38:04;;;;;;;7.80;3.42;;;;;;;;;;4993458;28;20057;-61
2022/07/24 04:40:31;;;;;;;11.27;5.35;;;;;;;;;;4984073;28;20060;-64
2022/07/24 04:42:57;;;;;;;8.38;4.18;;;;;;;;;;4993747;28;20054;-64
2022/07/24 04:45:24;;;;;;;10.07;5.03;;;;;;;;;;5002211;28;20145;-63
2022/07/24 04:47:52;;;;;;;7.55;3.33;;;;;;;;;;4973202;28;20065;-64
2022/07/24 04:50:18;;;;;;;9.43;5.13;;;;;;;;;;4973920;28;20053;-64
2022/07/24 04:52:45;;;;;;;11.70;6.03;;;;;;;;;;4969542;28;20093;-64
2022/07/24 04:55:12;;;;;;;9.07;4.03;;;;;;;;;;4973806;28;20054;-64
2022/07/24 04:57:40;;;;;;;9.15;4.38;;;;;;;;;;4970014;28;20104;-64
2022/07/24 05:00:10;;;;;;;9.03;4.00;;;;;;;;;;4973809;28;20054;-62
2022/07/24 05:02:37;;;;;;;15.88;6.70;;;;;;;;;;4965996;28;20302;-64
2022/07/24 05:05:05;;;;;;;7.20;3.97;;;;;;;;;;4987637;28;20058;-63
2022/07/24 05:07:34;;;;;;;16.27;8.90;;;;;;;;;;4977518;28;20058;-62
2022/07/24 05:10:01;;;;;;;11.38;5.47;;;;;;;;;;4969149;28;20074;-64
2022/07/24 05:12:28;;;;;;;13.82;7.20;;;;;;;;;;4968742;28;20050;-62
2022/07/24 05:14:54;;;;;;;8.82;4.80;;;;;;;;;;4979732;28;20054;-61
2022/07/24 05:17:24;;;;;;;16.85;7.30;;;;;;;;;;4988682;28;20078;-61
2022/07/24 05:19:51;;;;;;;8.00;4.32;;;;;;;;;;4978830;28;20038;-64
2022/07/24 05:22:19;;;;;;;8.70;4.57;;;;;;;;;;4988268;28;20055;-63
2022/07/24 05:24:46;;;;;;;12.65;7.40;;;;;;;;;;4979376;28;20050;-64
2022/07/24 05:27:13;;;;;;;15.77;8.32;;;;;;;;;;4989129;28;20046;-63
2022/07/24 05:29:41;;;;;;;14.80;7.10;;;;;;;;;;4982743;28;20050;-61
2022/07/24 05:32:07;;;;;;;14.93;8.75;;;;;;;;;;4986000;28;20498;-62
2022/07/24 05:34:34;;;;;;;7.07;3.45;;;;;;;;;;4987929;28;20054;-64
2022/07/24 05:37:00;;;;;;;20.83;9.38;;;;;;;;;;4979452;28;20050;-61
2022/07/24 05:39:28;;;;;;;20.25;10.15;;;;;;;;;;4988117;28;20054;-60
2022/07/24 05:41:55;;;;;;;11.95;6.95;;;;;;;;;;4972320;28;20084;-62
2022/07/24 05:44:22;;;;;;;11.32;5.10;;;;;;;;;;4968153;28;20059;-62
2022/07/24 05:46:49;;;;;;;17.40;8.32;;;;;;;;;;4962493;28;20133;-63
2022/07/24 05:49:16;;;;;;;22.15;10.52;;;;;;;;;;4968427;28;20046;-62
2022/07/24 05:51:43;;;;;;;18.92;10.57;;;;;;;;;;4968045;28;20042;-61
2022/07/24 05:54:09;;;;;;;15.20;8.65;;;;;;;;;;4979117;28;20050;-61
2022/07/24 05:56:38;;;;;;;15.18;7.63;;;;;;;;;;4988703;28;20113;-62
2022/07/24 05:59:05;;;;;;;26.98;11.38;;;;;;;;;;4969378;28;20050;-61
2022/07/24 06:01:32;;;;;;;23.58;11.85;;;;;;;;;;4970363;28;20078;-62
2022/07/24 06:03:59;;;;;;;21.55;12.23;;;;;;;;;;4965591;28;20042;-61
2022/07/24 06:06:25;;;;;;;23.70;12.30;;;;;;;;;;4971455;28;20158;-63
2022/07/24 06:08:52;;;;;;;21.90;11.57;;;;;;;;;;4968854;28;20069;-64
2022/07/24 06:11:19;;;;;;;23.85;12.02;;;;;;;;;;4986552;28;20061;-63
2022/07/24 06:13:47;;;;;;;22.53;10.53;;;;;;;;;;4991304;28;20065;-64
2022/07/24 06:16:14;;;;;;;11.20;6.25;;;;;;;;;;4982448;28;20065;-62
2022/07/24 06:18:41;;;;;;;21.42;9.73;;;;;;;;;;4990165;28;20049;-63
2022/07/24 06:21:07;;;;;;;20.35;10.30;;;;;;;;;;4992257;28;20068;-63
2022/07/24 06:23:34;;;;;;;23.95;10.50;;;;;;;;;;5005768;28;20073;-63
2022/07/24 06:26:00;;;;;;;18.58;9.25;;;;;;;;;;4995804;28;20050;-62
2022/07/24 06:28:28;;;;;;;17.08;7.70;;;;;;;;;;4989988;28;20068;-63
2022/07/24 06:30:57;;;;;;;21.50;9.00;;;;;;;;;;4985991;28;20049;-63
2022/07/24 06:33:23;;;;;;;;;;;;;;;;;;5007278;28;20093;-63
2022/07/24 06:35:50;;;;;;;20.77;8.27;;;;;;;;;;4993918;28;19999;-63
2022/07/24 06:38:17;;;;;;;15.23;8.00;;;;;;;;;;5006422;28;20055;-64
2022/07/24 06:40:43;;;;;;;10.60;5.90;;;;;;;;;;5002758;28;20141;-63
2022/07/24 06:43:10;;;;;;;18.67;7.80;;;;;;;;;;4998995;28;20053;-62
2022/07/24 06:45:37;;;;;;;19.85;7.82;;;;;;;;;;4982048;28;20046;-64
2022/07/24 06:48:06;;;;;;;19.90;8.40;;;;;;;;;;4976465;28;20054;-64
2022/07/24 06:50:32;;;;;;;13.90;7.53;;;;;;;;;;4979415;28;20054;-65
2022/07/24 06:52:59;;;;;;;16.08;7.15;;;;;;;;;;4975084;28;20169;-65
2022/07/24 06:55:25;;;;;;;16.95;7.13;;;;;;;;;;4977565;28;20061;-64
2022/07/24 06:57:53;;;;;;;15.77;7.07;;;;;;;;;;4974983;28;20079;-64
2022/07/24 07:00:20;;;;;;;14.88;7.40;;;;;;;;;;4979005;28;20065;-64
2022/07/24 07:02:46;;;;;;;11.60;5.93;;;;;;;;;;4972550;28;20169;-63
2022/07/24 07:05:14;;;;;;;12.00;6.60;;;;;;;;;;4977856;28;20085;-64
2022/07/24 07:07:43;;;;;;;15.40;7.72;;;;;;;;;;4976284;28;20060;-63
2022/07/24 07:10:10;;;;;;;13.90;7.03;;;;;;;;;;4975386;28;20054;-64
2022/07/24 07:12:37;;;;;;;13.88;6.28;;;;;;;;;;4969905;28;20050;-64
2022/07/24 07:15:04;;;;;;;13.30;5.43;;;;;;;;;;4980300;28;20081;-64
2022/07/24 07:17:31;;;;;;;11.65;5.47;;;;;;;;;;4976058;28;20127;-65
2022/07/24 07:19:58;;;;;;;10.45;4.72;;;;;;;;;;4978225;28;20049;-64
2022/07/24 07:22:26;;;;;;;12.23;5.53;;;;;;;;;;4974636;28;20100;-64
2022/07/24 07:24:53;;;;;;;6.72;3.60;;;;;;;;;;4992567;28;20108;-64
2022/07/24 07:27:19;;;;;;;8.90;4.05;;;;;;;;;;4980492;28;20060;-63
2022/07/24 07:29:46;;;;;;;13.13;4.50;;;;;;;;;;4974508;28;20054;-64
2022/07/24 07:32:12;;;;;;;12.70;4.82;;;;;;;;;;4975821;28;20054;-64
2022/07/24 07:34:39;;;;;;;13.00;4.55;;;;;;;;;;4976505;28;20069;-63
2022/07/24 07:37:06;;;;;;;11.07;5.50;;;;;;;;;;4984952;28;20077;-64
2022/07/24 07:39:34;;;;;;;7.63;3.92;;;;;;;;;;4981425;28;20080;-63
2022/07/24 07:42:00;;;;;;;8.63;3.97;;;;;;;;;;4986015;28;20121;-64
2022/07/24 07:44:27;;;;;;;9.70;4.28;;;;;;;;;;4976728;28;20049;-65
2022/07/24 07:46:53;;;;;;;9.25;4.40;;;;;;;;;;4986530;28;20093;-65
2022/07/24 07:49:21;;;;;;;7.97;3.88;;;;;;;;;;4975725;28;20054;-64
2022/07/24 07:51:51;;;;;;;11.18;4.13;;;;;;;;;;4980046;28;20141;-65
2022/07/24 07:54:17;;;;;;;8.98;3.45;;;;;;;;;;4977460;28;20094;-64
2022/07/24 07:56:45;;;;;;;6.28;3.03;;;;;;;;;;4982495;28;20053;-64
2022/07/24 07:59:12;;;;;;;6.40;3.00;;;;;;;;;;4974392;28;20054;-64
2022/07/24 08:01:39;;;;;;;7.45;3.05;;;;;;;;;;4976008;28;20184;-64
2022/07/24 08:04:05;;;;;;;6.28;3.00;;;;;;;;;;4971230;28;20065;-62
2022/07/24 08:06:32;;;;;;;5.75;2.47;;;;;;;;;;4981408;28;20087;-62
2022/07/24 08:08:59;;;;;;;5.97;2.88;;;;;;;;;;4979163;28;20050;-65
2022/07/24 08:11:25;;;;;;;7.25;3.00;;;;;;;;;;4972874;28;20065;-64
2022/07/24 08:13:53;;;;;;;6.88;2.95;;;;;;;;;;4978840;28;20050;-65
2022/07/24 08:16:20;;;;;;;7.35;3.25;;;;;;;;;;4974527;28;20045;-64
2022/07/24 08:18:47;;;;;;;8.05;3.60;;;;;;;;;;4980046;28;20054;-64
2022/07/24 08:21:15;;;;;;;8.20;3.20;;;;;;;;;;4952338;28;20062;-65
2022/07/24 08:23:41;;;;;;;6.30;2.97;;;;;;;;;;4980123;28;20054;-64
2022/07/24 08:26:08;;;;;;;6.05;2.80;;;;;;;;;;4979455;28;20117;-64
2022/07/24 08:28:35;;;;;;;10.05;3.63;;;;;;;;;;4966653;28;20051;-65
2022/07/24 08:31:03;;;;;;;9.68;3.53;;;;;;;;;;4975774;28;20065;-64
2022/07/24 08:33:29;;;;;;;6.90;2.90;;;;;;;;;;4973087;28;20091;-65
2022/07/24 08:35:56;;;;;;;5.60;3.00;;;;;;;;;;4977716;28;20112;-65
2022/07/24 08:38:22;;;;;;;10.30;3.38;;;;;;;;;;4974040;28;20050;-65
2022/07/24 08:40:49;;;;;;;6.97;3.28;;;;;;;;;;4979581;28;20051;-65
2022/07/24 08:43:16;;;;;;;10.50;3.53;;;;;;;;;;4976910;28;20046;-65
2022/07/24 08:45:43;;;;;;;8.52;3.60;;;;;;;;;;4978468;28;20068;-62
2022/07/24 08:48:11;;;;;;;7.55;3.58;;;;;;;;;;4983364;28;20046;-64
2022/07/24 08:50:39;;;;;;;11.55;3.38;;;;;;;;;;4972491;28;20057;-65
2022/07/24 08:53:05;;;;;;;8.23;3.38;;;;;;;;;;4982196;28;20050;-65
2022/07/24 08:55:33;;;;;;;8.55;3.95;;;;;;;;;;4975535;28;20101;-64
2022/07/24 08:58:02;;;;;;;8.60;3.17;;;;;;;;;;4981882;28;20050;-63
2022/07/24 09:00:29;;;;;;;9.30;3.75;;;;;;;;;;4969654;28;21638;-65
2022/07/24 09:02:56;;;;;;;8.70;3.70;;;;;;;;;;4984765;28;20058;-64
2022/07/24 09:05:24;;;;;;;5.07;2.50;;;;;;;;;;4985956;28;20058;-64
2022/07/24 09:07:50;;;;;;;10.52;3.45;;;;;;;;;;4979010;28;20068;-65
2022/07/24 09:10:18;;;;;;;9.07;3.30;;;;;;;;;;4989527;28;20061;-65
2022/07/24 09:12:45;;;;;;;6.72;2.70;;;;;;;;;;4969906;28;20054;-66
2022/07/24 09:15:13;;;;;;;8.23;3.37;;;;;;;;;;4970920;28;20046;-64
2022/07/24 09:17:48;;;;;;;8.43;3.40;;;;;;;;;;4966974;28;20146;-64
2022/07/24 09:20:15;;;;;;;7.82;3.45;;;;;;;;;;4975480;28;20113;-65
2022/07/24 09:22:43;;;;;;;9.75;3.53;;;;;;;;;;4980900;28;20082;-65
2022/07/24 09:25:12;;;;;;;8.98;3.28;;;;;;;;;;4987912;28;20120;-65
2022/07/24 09:27:41;;;;;;;6.20;3.17;;;;;;;;;;4989106;28;20149;-65
2022/07/24 09:30:08;;;;;;;5.20;2.45;;;;;;;;;;4983621;28;20058;-65
2022/07/24 09:32:36;;;;;;;6.23;2.63;;;;;;;;;;4989582;28;20056;-66
2022/07/24 09:35:03;;;;;;;6.80;2.58;;;;;;;;;;4971546;28;20066;-64
2022/07/24 09:37:32;;;;;;;6.15;2.97;;;;;;;;;;4970049;28;20057;-65
2022/07/24 09:40:11;;;;;;;7.03;2.92;;;;;;;;;;4979137;28;20177;-65
2022/07/24 09:42:41;;;;;;;6.03;2.67;;;;;;;;;;4988997;28;20054;-64
2022/07/24 09:45:10;;;;;;;7.50;2.88;;;;;;;;;;4980736;28;20082;-65
2022/07/24 09:47:37;;;;;;;5.95;2.88;;;;;;;;;;4988455;28;20058;-66
2022/07/24 09:50:12;;;;;;;5.30;2.55;;;;;;;;;;4988016;28;20073;-65
2022/07/24 09:52:41;;;;;;;7.47;2.78;;;;;;;;;;4968681;28;20050;-66
2022/07/24 09:55:19;;;;;;;5.00;2.45;;;;;;;;;;4970847;28;20121;-65
2022/07/24 09:57:47;;;;;;;;;;;;;;;;;;4965797;28;20054;-65
2022/07/24 10:00:14;;;;;;;5.83;2.40;;;;;;;;;;4977955;28;19960;-65
2022/07/24 10:02:44;;;;;;;6.43;2.92;;;;;;;;;;4974091;28;20317;-67
2022/07/24 10:05:12;;;;;;;6.65;2.70;;;;;;;;;;4969643;28;20066;-65
2022/07/24 10:07:39;;;;;;;5.70;2.50;;;;;;;;;;4966449;28;20069;-66
2022/07/24 10:10:06;;;;;;;9.73;2.35;;;;;;;;;;4977325;28;20047;-67
2022/07/24 10:12:35;;;;;;;4.82;2.10;;;;;;;;;;4985315;28;20046;-66
2022/07/24 10:15:02;;;;;;;5.57;2.60;;;;;;;;;;4982560;28;20086;-64
2022/07/24 10:17:34;;;;;;;5.60;2.50;;;;;;;;;;4988241;28;20058;-66
2022/07/24 10:20:03;;;;;;;7.05;2.40;;;;;;;;;;4985713;28;20054;-65
2022/07/24 10:22:36;;;;;;;4.65;2.08;;;;;;;;;;5007946;28;20061;-64
2022/07/24 10:25:06;;;;;;;5.03;2.28;;;;;;;;;;4988880;28;20053;-63
2022/07/24 10:27:35;;;;;;;5.95;2.90;;;;;;;;;;4988626;28;20054;-66
2022/07/24 10:30:04;;;;;;;4.93;2.30;;;;;;;;;;4982643;28;20062;-67
2022/07/24 10:32:32;;;;;;;3.92;2.10;;;;;;;;;;4988954;28;20066;-67
2022/07/24 10:35:12;;;;;;;4.95;2.15;;;;;;;;;;4982586;28;20054;-66
2022/07/24 10:37:42;;;;;;;6.40;2.17;;;;;;;;;;4988046;28;20054;-66
2022/07/24 10:40:17;;;;;;;5.03;2.20;;;;;;;;;;4981207;28;20046;-66
2022/07/24 10:43:03;;;;;;;6.00;2.53;;;;;;;;;;4987863;28;20050;-66
2022/07/24 10:45:31;;;;;;;6.15;2.17;;;;;;;;;;4982065;28;20061;-65
2022/07/24 10:47:58;;;;;;;4.25;2.38;;;;;;;;;;4987521;28;20054;-65
2022/07/24 10:50:45;;;;;;;4.80;2.20;;;;;;;;;;4982508;28;20061;-65
2022/07/24 10:53:22;;;;;;;4.60;2.20;;;;;;;;;;4988131;28;20058;-64
2022/07/24 10:55:49;;;;;;;3.38;1.92;;;;;;;;;;4982625;28;20157;-65
2022/07/24 10:58:21;;;;;;;4.88;2.40;;;;;;;;;;4987880;28;20116;-65
2022/07/24 11:00:48;;;;;;;6.07;2.50;;;;;;;;;;4982389;28;20047;-65
2022/07/24 11:03:19;;;;;;;4.38;2.00;;;;;;;;;;4987483;28;20057;-65
2022/07/24 11:06:00;;;;;;;4.20;2.22;;;;;;;;;;4982407;28;20050;-65
2022/07/24 11:08:33;;;;;;;5.97;2.63;;;;;;;;;;4986174;28;20054;-66
2022/07/24 11:11:07;;;;;;;3.83;2.20;;;;;;;;;;4981128;28;20137;-66
2022/07/24 11:13:43;;;;;;;3.72;1.92;;;;;;;;;;4987855;28;20054;-65
2022/07/24 11:16:13;;;;;;;4.13;1.92;;;;;;;;;;4982329;28;20061;-66
2022/07/24 11:18:40;;;;;;;4.75;2.03;;;;;;;;;;4988007;28;20065;-66
2022/07/24 11:21:07;;;;;;;3.50;2.00;;;;;;;;;;4982075;28;20049;-63
2022/07/24 11:23:36;;;;;;;3.40;1.88;;;;;;;;;;4987140;28;20050;-62
2022/07/24 11:26:20;;;;;;;11.95;4.13;;;;;;;;;;4981437;28;20081;-66
2022/07/24 11:29:02;;;;;;;10.55;4.32;;;;;;;;;;4986783;28;20053;-67
2022/07/24 11:31:29;;;;;;;4.53;2.28;;;;;;;;;;4981756;28;20043;-66
2022/07/24 11:33:56;;;;;;;7.43;2.33;;;;;;;;;;4987529;28;20055;-65
2022/07/24 11:36:22;;;;;;;5.15;2.33;;;;;;;;;;4981284;28;20054;-66
2022/07/24 11:38:51;;;;;;;7.07;2.80;;;;;;;;;;4987058;28;20113;-66
2022/07/24 11:41:18;;;;;;;4.40;2.40;;;;;;;;;;4987147;28;20113;-67
2022/07/24 11:43:50;;;;;;;4.93;2.35;;;;;;;;;;4982446;28;20056;-67
2022/07/24 11:46:32;;;;;;;5.45;2.30;;;;;;;;;;4987063;28;20062;-67
2022/07/24 11:49:02;;;;;;;5.72;2.28;;;;;;;;;;4981758;28;20078;-65
2022/07/24 11:51:29;;;;;;;3.78;1.73;;;;;;;;;;4987213;28;20062;-67
2022/07/24 11:53:58;;;;;;;3.97;1.70;;;;;;;;;;4980959;28;20065;-67
2022/07/24 11:56:25;;;;;;;4.47;2.10;;;;;;;;;;4987756;28;20050;-67
2022/07/24 11:58:51;;;;;;;3.78;2.00;;;;;;;;;;4996377;28;20259;-67
2022/07/24 12:01:21;;;;;;;4.20;2.08;;;;;;;;;;5007154;28;20061;-65
2022/07/24 12:03:53;;;;;;;3.97;2.00;;;;;;;;;;5000801;28;20057;-66
2022/07/24 12:06:20;;;;;;;4.43;2.10;;;;;;;;;;5005687;28;20069;-64
2022/07/24 12:08:46;;;;;;;5.53;2.60;;;;;;;;;;4992869;28;20046;-67
2022/07/24 12:11:20;;;;;;;4.45;2.20;;;;;;;;;;4989844;28;20049;-66
2022/07/24 12:13:47;;;;;;;6.65;1.95;;;;;;;;;;4989231;28;20096;-66
2022/07/24 12:16:15;;;;;;;3.50;1.77;;;;;;;;;;5006990;28;20053;-68
2022/07/24 12:18:42;;;;;;;3.50;2.00;;;;;;;;;;5000687;28;20128;-67
2022/07/24 12:21:11;;;;;;;4.32;1.98;;;;;;;;;;4985051;28;20054;-68
2022/07/24 12:23:38;;;;;;;5.75;2.72;;;;;;;;;;4974833;28;20119;-66
2022/07/24 12:26:05;;;;;;;5.28;2.85;;;;;;;;;;5010886;28;20045;-67
2022/07/24 12:28:33;;;;;;;4.68;2.05;;;;;;;;;;4987912;28;20206;-67
2022/07/24 12:31:06;;;;;;;3.42;2.00;;;;;;;;;;5001683;28;20160;-64
2022/07/24 12:33:33;;;;;;;3.67;1.65;;;;;;;;;;4988183;28;20057;-67
2022/07/24 12:36:00;;;;;;;3.10;1.58;;;;;;;;;;4993601;28;20058;-66
2022/07/24 12:38:27;;;;;;;3.85;1.88;;;;;;;;;;4984892;28;20054;-65
2022/07/24 12:41:05;;;;;;;3.65;1.77;;;;;;;;;;5003171;28;20060;-67
2022/07/24 12:43:33;;;;;;;5.70;2.00;;;;;;;;;;5010677;28;20046;-66
2022/07/24 12:46:07;;;;;;;3.13;1.88;;;;;;;;;;5003324;28;20042;-65
2022/07/24 12:48:35;;;;;;;3.03;1.77;;;;;;;;;;5009598;28;20112;-64
2022/07/24 12:51:03;;;;;;;2.90;1.80;;;;;;;;;;5005771;28;20081;-68
2022/07/24 12:53:30;;;;;;;4.30;2.05;;;;;;;;;;5010369;28;20049;-67
2022/07/24 12:56:01;;;;;;;3.70;1.75;;;;;;;;;;4993607;28;20113;-66
2022/07/24 12:58:29;;;;;;;4.65;2.08;;;;;;;;;;5009858;28;20118;-65
2022/07/24 13:01:00;;;;;;;3.78;1.88;;;;;;;;;;4997059;28;20056;-67
2022/07/24 13:03:27;;;;;;;3.88;1.90;;;;;;;;;;5009549;28;20069;-66
2022/07/24 13:05:56;;;;;;;3.72;1.88;;;;;;;;;;5003428;28;20049;-68
2022/07/24 13:08:23;;;;;;;3.42;1.80;;;;;;;;;;5008552;28;20116;-67
2022/07/24 13:10:49;;;;;;;5.55;2.00;;;;;;;;;;5003100;28;20049;-66
2022/07/24 13:13:16;;;;;;;5.93;1.73;;;;;;;;;;5009332;28;20061;-67
2022/07/24 13:15:43;;;;;;;2.20;1.52;;;;;;;;;;5003924;28;20054;-67
2022/07/24 13:18:11;;;;;;;3.97;1.77;;;;;;;;;;5008233;28;20045;-67
2022/07/24 13:20:38;;;;;;;;;;;;;;;;;;4995194;28;20096;-66
2022/07/24 13:23:04;;;;;;;6.07;1.70;;;;;;;;;;5012341;28;19920;-67
2022/07/24 13:25:31;;;;;;;3.80;1.85;;;;;;;;;;5007224;28;20073;-66
2022/07/24 13:27:57;;;;;;;4.03;2.03;;;;;;;;;;4990851;28;20128;-65
2022/07/24 13:30:24;;;;;;;5.65;2.10;;;;;;;;;;5010295;28;20049;-66
2022/07/24 13:32:51;;;;;;;5.60;1.80;;;;;;;;;;5001525;28;20051;-67
2022/07/24 13:35:19;;;;;;;2.97;1.60;;;;;;;;;;5008367;28;20137;-67
2022/07/24 13:37:46;;;;;;;4.47;1.90;;;;;;;;;;5001730;28;20053;-67
2022/07/24 13:40:13;;;;;;;3.03;1.77;;;;;;;;;;5009249;28;20050;-67
2022/07/24 13:42:40;;;;;;;6.47;1.70;;;;;;;;;;4992944;28;20153;-66
2022/07/24 13:45:08;;;;;;;4.43;1.83;;;;;;;;;;4992219;28;20053;-67
2022/07/24 13:47:34;;;;;;;4.53;1.73;;;;;;;;;;4986829;28;20064;-66
2022/07/24 13:50:01;;;;;;;5.95;1.73;;;;;;;;;;5009939;28;20049;-66
2022/07/24 13:52:29;;;;;;;4.28;1.65;;;;;;;;;;4987017;28;20049;-67
2022/07/24 13:54:55;;;;;;;;;;;;;;;;;;4993834;28;20049;-66
2022/07/24 13:57:22;;;;;;;3.55;1.70;;;;;;;;;;4988794;28;19933;-66
2022/07/24 13:59:49;;;;;;;9.05;1.60;;;;;;;;;;4983381;28;20054;-66
2022/07/24 14:02:16;;;;;;;5.07;1.67;;;;;;;;;;4965377;28;20054;-66
2022/07/24 14:04:43;;;;;;;4.82;1.70;;;;;;;;;;4988816;28;20054;-66
2022/07/24 14:07:10;;;;;;;2.60;1.48;;;;;;;;;;4983169;28;20043;-66
2022/07/24 14:09:38;;;;;;;2.00;1.35;;;;;;;;;;4974715;28;20053;-67
2022/07/24 14:12:05;;;;;;;2.40;1.58;;;;;;;;;;4972879;28;20061;-66
2022/07/24 14:14:32;;;;;;;7.78;1.80;;;;;;;;;;5000695;28;20046;-66
2022/07/24 14:17:06;;;;;;;3.40;1.65;;;;;;;;;;5009033;28;20077;-67
2022/07/24 14:19:33;;;;;;;3.30;1.52;;;;;;;;;;4987168;28;20054;-66
2022/07/24 14:21:59;;;;;;;5.83;1.70;;;;;;;;;;4969495;28;20092;-63
2022/07/24 14:24:26;;;;;;;3.53;1.52;;;;;;;;;;4978031;28;20069;-66
2022/07/24 14:26:55;;;;;;;2.95;1.67;;;;;;;;;;4988735;28;20054;-66
2022/07/24 14:29:22;;;;;;;4.78;1.80;;;;;;;;;;4982978;28;20062;-66
2022/07/24 14:31:48;;;;;;;2.92;1.60;;;;;;;;;;4974039;28;20070;-66
2022/07/24 14:34:15;;;;;;;3.72;1.80;;;;;;;;;;4976006;28;20062;-65
2022/07/24 14:36:42;;;;;;;3.10;1.70;;;;;;;;;;5007139;28;20107;-66
2022/07/24 14:39:09;;;;;;;5.25;1.55;;;;;;;;;;4994986;28;20065;-66
2022/07/24 14:41:36;;;;;;;3.07;1.60;;;;;;;;;;4987743;28;20058;-66
2022/07/24 14:44:04;;;;;;;3.78;1.60;;;;;;;;;;4982435;28;20069;-66
2022/07/24 14:46:31;;;;;;;;;;;;;;;;;;4988409;28;20055;-66